Time;durP1;ratioP1;P1;durP2;ratioP2;P2;SDS_P1;SDS_P2;PMS_P1;PMS_P2;Temp;Humidity;BMP_temperature;BMP_pressure;BME280_temperature;BME280_humidity;BME280_pressure;Samples;Min_cycle;Max_cycle;Signal;HPM_P1;HPM_P2
2024/03/11 00:02:57;;;;;;;25.30;13.90;;;;;;;7.02;100.00;98125.08;271980;1277;22257;-91
2024/03/11 00:17:21;;;;;;;21.20;13.90;;;;;;;6.99;100.00;98106.94;272345;1277;22372;-89
2024/03/11 00:23:25;;;;;;;22.70;14.00;;;;;;;6.97;100.00;98105.60;272353;1277;22159;-89
2024/03/11 00:29:48;;;;;;;24.70;13.80;;;;;;;6.97;100.00;98100.93;272112;1280;22879;-90
2024/03/11 00:36:16;;;;;;;23.60;14.50;;;;;;;6.98;100.00;98094.64;272049;1280;22211;-90
2024/03/11 00:42:43;;;;;;;31.70;16.20;;;;;;;6.98;100.00;98090.60;271779;1279;22939;-88
2024/03/11 00:56:01;;;;;;;26.80;14.20;;;;;;;6.99;100.00;98072.96;272235;1280;22442;-89
2024/03/11 01:02:07;;;;;;;30.00;16.70;;;;;;;6.98;100.00;98072.88;272364;1278;22960;-88
2024/03/11 01:08:54;;;;;;;23.00;12.80;;;;;;;6.99;100.00;98066.04;272266;1280;22212;-90
2024/03/11 01:23:45;;;;;;;23.10;13.10;;;;;;;7.02;100.00;98057.52;272275;1283;22284;-88
2024/03/11 01:30:14;;;;;;;23.90;13.30;;;;;;;7.02;100.00;98050.20;271922;1277;22564;-89
2024/03/11 01:37:22;;;;;;;22.10;12.30;;;;;;;7.02;100.00;98039.88;271149;1277;22296;-90
2024/03/11 01:44:09;;;;;;;21.90;12.50;;;;;;;7.01;100.00;98033.19;271877;1281;22293;-90
2024/03/11 02:04:13;;;;;;;23.70;13.50;;;;;;;6.97;100.00;98017.74;268633;1280;265315;-90
2024/03/11 02:10:19;;;;;;;24.10;14.10;;;;;;;6.96;100.00;98017.74;271544;1277;22255;-90
2024/03/11 02:17:02;;;;;;;18.50;12.20;;;;;;;6.96;100.00;98016.65;272154;1274;22633;-89
2024/03/11 02:23:05;;;;;;;19.90;11.80;;;;;;;6.95;100.00;98018.05;269125;1276;22263;-88
2024/03/11 02:29:17;;;;;;;22.00;12.00;;;;;;;6.91;100.00;98012.79;268893;1276;25409;-89
2024/03/11 02:35:20;;;;;;;18.50;11.70;;;;;;;6.88;100.00;98008.10;270884;1264;22314;-89
2024/03/11 02:41:22;;;;;;;20.90;12.20;;;;;;;6.89;100.00;98001.95;271523;1276;22854;-87
2024/03/11 02:47:24;;;;;;;20.60;13.10;;;;;;;6.93;100.00;97993.84;271604;1268;22365;-89
2024/03/11 02:53:30;;;;;;;17.20;10.80;;;;;;;6.99;100.00;97992.27;271725;1277;23810;-88
2024/03/11 02:59:36;;;;;;;19.10;11.60;;;;;;;7.06;100.00;97989.30;271673;1275;23441;-88
2024/03/11 03:05:39;;;;;;;18.40;11.60;;;;;;;7.10;100.00;97988.33;271750;1275;22278;-88
2024/03/11 03:11:42;;;;;;;18.10;10.60;;;;;;;7.14;100.00;97981.83;271503;1276;22270;-89
2024/03/11 03:17:44;;;;;;;16.10;9.90;;;;;;;7.20;100.00;97984.13;271704;1276;22967;-87
2024/03/11 03:23:46;;;;;;;19.20;11.10;;;;;;;7.23;100.00;97992.02;271766;1276;23046;-88
2024/03/11 03:29:51;;;;;;;15.20;10.20;;;;;;;7.23;100.00;97991.09;271317;1276;22356;-90
2024/03/11 03:35:53;;;;;;;17.50;10.00;;;;;;;7.22;100.00;97993.56;271587;1276;22942;-87
2024/03/11 03:41:58;;;;;;;18.70;11.50;;;;;;;7.22;100.00;97998.30;271242;1276;22574;-88
2024/03/11 03:48:01;;;;;;;16.70;10.70;;;;;;;7.21;100.00;97998.68;271507;1276;22381;-89
2024/03/11 03:54:02;;;;;;;15.70;10.30;;;;;;;7.21;100.00;98009.80;271598;1275;22183;-89
2024/03/11 04:00:14;;;;;;;17.90;11.00;;;;;;;7.20;100.00;98017.33;271486;1259;23626;-89
2024/03/11 04:06:38;;;;;;;17.30;11.20;;;;;;;7.16;100.00;98009.61;271328;1276;22549;-89
2024/03/11 04:12:53;;;;;;;16.50;9.80;;;;;;;7.12;100.00;98005.06;271583;1276;22219;-88
2024/03/11 04:19:04;;;;;;;18.70;11.40;;;;;;;7.10;100.00;98005.35;271383;1275;22412;-89
2024/03/11 04:25:07;;;;;;;18.50;11.20;;;;;;;7.07;100.00;97992.80;271288;1275;22237;-89
2024/03/11 04:31:12;;;;;;;16.50;11.00;;;;;;;7.04;100.00;97984.38;271329;1276;22394;-90
2024/03/11 04:37:18;;;;;;;18.10;10.60;;;;;;;7.01;100.00;97995.23;271293;1264;22440;-90
2024/03/11 04:43:21;;;;;;;16.90;10.80;;;;;;;7.00;100.00;98003.55;271360;1275;22395;-88
2024/03/11 04:49:23;;;;;;;19.90;12.10;;;;;;;7.00;100.00;98000.76;271241;1276;22784;-90
2024/03/11 04:55:27;;;;;;;17.50;11.90;;;;;;;6.99;100.00;97996.63;271400;1276;23551;-88
2024/03/11 05:01:30;;;;;;;19.10;12.40;;;;;;;6.97;100.00;97999.64;271514;1276;22221;-88
2024/03/11 05:07:32;;;;;;;24.20;14.10;;;;;;;6.96;100.00;98006.39;271896;1277;22208;-88
2024/03/11 05:13:39;;;;;;;21.60;12.40;;;;;;;6.96;100.00;98000.88;271279;1275;22690;-89
2024/03/11 05:20:18;;;;;;;21.90;12.90;;;;;;;6.95;100.00;97994.17;271669;1275;22302;-90
2024/03/11 05:26:27;;;;;;;24.90;15.10;;;;;;;6.94;100.00;97986.00;271806;1270;22386;-89
2024/03/11 05:32:40;;;;;;;;;;;;;;;6.93;100.00;97993.00;271661;1269;23138;-89
2024/03/11 05:38:50;;;;;;;26.40;14.50;;;;;;;6.96;100.00;98003.05;271585;1275;22216;-89
2024/03/11 05:44:58;;;;;;;22.70;13.50;;;;;;;6.99;100.00;98008.21;271650;1275;23973;-92
2024/03/11 05:51:12;;;;;;;21.40;13.50;;;;;;;7.02;100.00;98028.91;271867;1276;22435;-89
2024/03/11 05:57:35;;;;;;;21.20;13.60;;;;;;;7.06;100.00;98053.36;272026;1276;23186;-89
2024/03/11 06:03:49;;;;;;;28.60;15.90;;;;;;;7.10;100.00;98067.02;272081;1276;22426;-90
2024/03/11 06:10:07;;;;;;;24.60;13.40;;;;;;;7.14;100.00;98070.79;271830;1275;23130;-90
2024/03/11 06:16:19;;;;;;;25.10;15.50;;;;;;;7.18;100.00;98083.95;271662;1276;22488;-91
2024/03/11 06:22:34;;;;;;;43.50;20.30;;;;;;;7.24;100.00;98086.52;271503;1273;22300;-91
2024/03/11 06:28:49;;;;;;;36.80;19.50;;;;;;;7.31;100.00;98090.41;271643;1276;23640;-91
2024/03/11 06:35:11;;;;;;;32.00;16.90;;;;;;;7.40;100.00;98094.29;272163;1276;22286;-91
2024/03/11 06:41:22;;;;;;;24.60;14.60;;;;;;;7.48;100.00;98095.84;272045;1276;22498;-89
2024/03/11 06:47:37;;;;;;;22.70;14.90;;;;;;;7.54;100.00;98100.41;271830;1275;22159;-90
2024/03/11 06:53:40;;;;;;;22.50;15.40;;;;;;;7.59;100.00;98100.06;271508;1275;22370;-90
2024/03/11 06:59:45;;;;;;;25.30;17.00;;;;;;;7.66;100.00;98102.38;271318;1275;24275;-90
2024/03/11 07:05:47;;;;;;;31.50;16.80;;;;;;;7.73;100.00;98102.89;271625;1276;22984;-90
2024/03/11 07:11:48;;;;;;;26.70;17.10;;;;;;;7.84;100.00;98105.48;271872;1275;22213;-88
2024/03/11 07:17:51;;;;;;;25.90;17.10;;;;;;;7.94;100.00;98108.81;271491;1276;22381;-90
2024/03/11 07:23:53;;;;;;;31.50;17.00;;;;;;;8.06;100.00;98110.46;271550;1276;22679;-91
2024/03/11 07:29:57;;;;;;;39.60;18.80;;;;;;;8.19;100.00;98110.56;271546;1276;22488;-89
2024/03/11 07:35:59;;;;;;;33.20;18.30;;;;;;;8.34;100.00;98114.02;271672;1271;22286;-89
2024/03/11 07:42:03;;;;;;;34.10;17.80;;;;;;;8.45;100.00;98120.63;271772;1276;22283;-90
2024/03/11 07:48:10;;;;;;;29.50;18.70;;;;;;;8.57;100.00;98128.40;272113;1276;22310;-90
2024/03/11 07:54:12;;;;;;;30.40;19.40;;;;;;;8.68;100.00;98133.05;272112;1276;22453;-90
2024/03/11 08:00:18;;;;;;;31.40;19.60;;;;;;;8.76;100.00;98137.30;272008;1275;22990;-90
2024/03/11 08:06:21;;;;;;;35.50;23.20;;;;;;;8.90;100.00;98142.44;271465;1275;22800;-89
2024/03/11 08:12:23;;;;;;;40.90;24.00;;;;;;;9.00;100.00;98149.27;271455;1275;23317;-90
2024/03/11 08:18:29;;;;;;;36.60;24.50;;;;;;;9.10;100.00;98162.33;271330;1275;22487;-90
2024/03/11 08:24:31;;;;;;;34.90;21.20;;;;;;;9.22;100.00;98164.08;271385;1275;23687;-89
2024/03/11 08:30:33;;;;;;;31.70;20.10;;;;;;;9.27;100.00;98159.58;271498;1276;22257;-90
2024/03/11 08:36:42;;;;;;;29.50;18.20;;;;;;;9.27;100.00;98165.20;271291;1270;22211;-88
2024/03/11 08:42:44;;;;;;;25.70;17.10;;;;;;;9.32;100.00;98175.74;271623;1275;22196;-89
2024/03/11 08:49:07;;;;;;;;;;;;;;;;;;;;;
2024/03/11 08:55:24;;;;;;;25.60;15.10;;;;;;;9.43;100.00;98183.10;271282;1275;22304;-88
2024/03/11 09:01:26;;;;;;;23.10;14.50;;;;;;;9.47;100.00;98188.03;271446;1276;22661;-90
2024/03/11 09:08:21;;;;;;;20.90;14.20;;;;;;;9.52;100.00;98186.79;271695;1275;23604;-90
2024/03/11 09:14:49;;;;;;;22.60;14.30;;;;;;;9.59;100.00;98184.08;270790;1275;23120;-90
2024/03/11 09:20:53;;;;;;;25.60;15.50;;;;;;;9.62;100.00;98185.72;271555;1275;22498;-89
2024/03/11 09:27:23;;;;;;;;;;;;;;;;;;;;;
2024/03/11 09:33:31;;;;;;;20.50;12.60;;;;;;;9.76;100.00;98176.05;271591;1277;22260;-91
2024/03/11 09:40:18;;;;;;;22.30;13.30;;;;;;;9.87;100.00;98184.13;272382;1281;22984;-89
2024/03/11 09:46:48;;;;;;;21.30;14.30;;;;;;;9.99;100.00;98181.94;272441;1280;22311;-90
2024/03/11 09:53:03;;;;;;;20.70;13.20;;;;;;;10.09;100.00;98182.05;271870;1276;23729;-89
2024/03/11 09:59:28;;;;;;;23.00;14.10;;;;;;;10.23;100.00;98178.61;271435;1275;22506;-90
2024/03/11 10:06:21;;;;;;;19.70;13.40;;;;;;;10.36;100.00;98178.05;271367;1276;22580;-90
2024/03/11 10:13:40;;;;;;;;;;;;;;;;;;;;;
2024/03/11 10:20:21;;;;;;;22.60;13.20;;;;;;;10.67;100.00;98177.91;271985;1278;22215;-90
2024/03/11 10:26:41;;;;;;;19.40;13.60;;;;;;;10.77;100.00;98180.47;271595;1277;22211;-88
2024/03/11 10:33:14;;;;;;;22.00;13.80;;;;;;;10.74;100.00;98179.31;271270;1276;22648;-91
2024/03/11 10:45:34;;;;;;;21.90;13.80;;;;;;;10.73;100.00;98177.52;271440;1276;22211;-89
2024/03/11 10:51:42;;;;;;;20.50;13.30;;;;;;;10.74;100.00;98179.70;271325;1276;22458;-90
2024/03/11 10:57:53;;;;;;;23.90;15.50;;;;;;;10.71;100.00;98178.45;271932;1280;22222;-89
2024/03/11 11:04:52;;;;;;;24.90;17.20;;;;;;;10.73;100.00;98179.00;272194;1279;23436;-91
2024/03/11 11:11:19;;;;;;;30.40;19.40;;;;;;;10.76;100.00;98178.52;271489;1276;22220;-90
2024/03/11 11:17:23;;;;;;;28.60;18.00;;;;;;;10.82;100.00;98181.33;271453;1277;23716;-90
2024/03/11 11:23:27;;;;;;;32.80;18.20;;;;;;;10.93;100.00;98179.96;271620;1275;22320;-90
2024/03/11 11:29:29;;;;;;;27.10;18.40;;;;;;;11.08;100.00;98178.58;271531;1276;22303;-89
2024/03/11 11:35:36;;;;;;;35.00;17.60;;;;;;;11.18;100.00;98178.38;271641;1277;22322;-90
2024/03/11 11:42:08;;;;;;;;;;;;;;;;;;;;;
2024/03/11 11:48:21;;;;;;;29.50;17.70;;;;;;;11.20;100.00;98177.50;271357;1277;22275;-92
2024/03/11 11:54:28;;;;;;;26.40;17.20;;;;;;;11.26;100.00;98178.81;271294;1277;23129;-90
2024/03/11 12:00:32;;;;;;;25.80;17.10;;;;;;;11.28;100.00;98176.45;271315;1277;22442;-90
2024/03/11 12:06:37;;;;;;;29.40;18.60;;;;;;;11.37;100.00;98171.62;271657;1276;22177;-91
2024/03/11 12:12:48;;;;;;;27.40;18.30;;;;;;;11.43;100.00;98173.48;271432;1276;23349;-89
2024/03/11 12:19:01;;;;;;;27.80;19.10;;;;;;;11.43;100.00;98168.08;271687;1276;22336;-90
2024/03/11 12:25:04;;;;;;;30.00;19.90;;;;;;;11.39;100.00;98171.31;271369;1276;23091;-90
2024/03/11 12:31:15;;;;;;;31.70;20.80;;;;;;;11.36;100.00;98171.16;271257;1276;22181;-90
2024/03/11 12:37:18;;;;;;;29.10;19.40;;;;;;;11.31;100.00;98167.43;272062;1276;22190;-89
2024/03/11 12:43:20;;;;;;;31.10;21.00;;;;;;;11.26;100.00;98166.04;271709;1276;22389;-89
2024/03/11 12:49:24;;;;;;;31.50;22.10;;;;;;;11.24;100.00;98166.14;271452;1275;22335;-90
2024/03/11 12:55:26;;;;;;;34.20;21.30;;;;;;;11.20;100.00;98159.59;271666;1276;22302;-87
2024/03/11 13:01:31;;;;;;;31.20;21.50;;;;;;;11.13;100.00;98161.49;271758;1275;22206;-88
2024/03/11 13:07:33;;;;;;;33.90;20.20;;;;;;;11.09;100.00;98161.44;271578;1277;22182;-90
2024/03/11 13:13:36;;;;;;;30.40;21.20;;;;;;;11.09;100.00;98157.98;271826;1264;22761;-89
2024/03/11 13:19:42;;;;;;;29.50;20.20;;;;;;;11.12;100.00;98158.99;271745;1276;22207;-90
2024/03/11 13:25:44;;;;;;;30.60;20.60;;;;;;;11.18;100.00;98154.74;271654;1276;22230;-89
2024/03/11 13:31:49;;;;;;;28.40;21.00;;;;;;;11.26;100.00;98158.92;271601;1276;23676;-88
2024/03/11 13:37:54;;;;;;;30.90;20.90;;;;;;;11.29;100.00;98154.98;271598;1277;22278;-88
2024/03/11 13:43:57;;;;;;;35.00;21.60;;;;;;;11.28;100.00;98152.34;271369;1277;22688;-89
2024/03/11 13:50:02;;;;;;;29.50;20.80;;;;;;;11.28;100.00;98145.61;271423;1277;22401;-88
2024/03/11 13:56:06;;;;;;;38.20;23.10;;;;;;;11.28;100.00;98145.06;271413;1277;23512;-88
2024/03/11 14:02:09;;;;;;;31.50;20.60;;;;;;;11.28;100.00;98139.58;271198;1277;272820;-90
2024/03/11 14:08:13;;;;;;;34.70;22.70;;;;;;;11.27;100.00;98138.73;271176;1277;22416;-89
2024/03/11 14:14:17;;;;;;;32.40;22.20;;;;;;;11.24;100.00;98137.96;271370;1277;22202;-89
2024/03/11 14:20:24;;;;;;;35.20;23.70;;;;;;;11.24;100.00;98137.10;271905;1278;22319;-90
2024/03/11 14:26:27;;;;;;;37.10;24.30;;;;;;;11.20;100.00;98129.77;271235;1277;22351;-88
2024/03/11 14:32:30;;;;;;;35.90;23.50;;;;;;;11.16;100.00;98127.52;271322;1276;22518;-89
2024/03/11 14:38:32;;;;;;;31.60;22.20;;;;;;;11.15;100.00;98124.22;271351;1276;23849;-89
2024/03/11 14:44:36;;;;;;;38.10;24.00;;;;;;;11.13;100.00;98117.73;271356;1277;23566;-89
2024/03/11 14:50:42;;;;;;;39.10;26.00;;;;;;;11.11;100.00;98119.71;271633;1276;22340;-90
2024/03/11 14:56:44;;;;;;;39.00;25.80;;;;;;;11.09;100.00;98113.30;271870;1275;22530;-89
2024/03/11 15:02:49;;;;;;;36.30;25.60;;;;;;;11.09;100.00;98113.86;271486;1275;22464;-91
2024/03/11 15:08:51;;;;;;;38.70;25.60;;;;;;;11.08;100.00;98112.13;271391;1276;22407;-89
2024/03/11 15:14:59;;;;;;;41.20;25.50;;;;;;;11.08;100.00;98110.58;271318;1276;22498;-89
2024/03/11 15:21:03;;;;;;;31.90;22.70;;;;;;;11.09;100.00;98113.62;271443;1275;22319;-88
2024/03/11 15:27:38;;;;;;;30.00;20.20;;;;;;;11.06;100.00;98118.88;271359;1276;22935;-89
2024/03/11 15:34:16;;;;;;;26.00;14.90;;;;;;;11.02;100.00;98122.02;272468;1283;22370;-89
2024/03/11 15:40:37;;;;;;;23.90;14.30;;;;;;;10.96;100.00;98120.02;271957;1280;22262;-90
2024/03/11 15:46:59;;;;;;;23.00;16.20;;;;;;;10.91;100.00;98125.75;271912;1277;22370;-89
2024/03/11 15:53:02;;;;;;;30.60;17.10;;;;;;;10.84;100.00;98120.85;271158;1276;22412;-90
2024/03/11 15:59:07;;;;;;;23.40;15.10;;;;;;;10.76;100.00;98120.80;271465;1277;22978;-89
2024/03/11 16:05:32;;;;;;;24.30;16.40;;;;;;;10.68;100.00;98121.38;271214;1276;23247;-90
2024/03/11 16:12:02;;;;;;;;;;;;;;;10.59;100.00;98126.50;272019;1280;22402;-90
2024/03/11 16:18:16;;;;;;;24.80;15.90;;;;;;;10.47;100.00;98124.80;271332;1276;22182;-90
2024/03/11 16:24:29;;;;;;;30.90;19.40;;;;;;;10.35;100.00;98120.85;271207;1276;22232;-90
2024/03/11 16:30:34;;;;;;;38.50;21.60;;;;;;;10.26;100.00;98123.52;271371;1277;22208;-89
2024/03/11 16:36:40;;;;;;;41.20;23.80;;;;;;;10.17;100.00;98130.64;272243;1279;22171;-89
2024/03/11 16:42:48;;;;;;;33.80;23.90;;;;;;;10.11;100.00;98140.95;272215;1280;22182;-89
2024/03/11 16:49:00;;;;;;;36.30;22.10;;;;;;;10.02;100.00;98141.23;271099;1276;22277;-89
2024/03/11 16:55:10;;;;;;;35.50;21.40;;;;;;;9.96;100.00;98138.91;271765;1278;22221;-90
2024/03/11 17:01:40;;;;;;;42.50;24.70;;;;;;;9.90;100.00;98144.22;271247;1276;22218;-90
2024/03/11 17:08:14;;;;;;;49.10;33.20;;;;;;;9.81;100.00;98154.29;263970;1276;10001866;-90
2024/03/11 17:14:32;;;;;;;57.20;35.10;;;;;;;9.63;100.00;98156.13;271568;1276;22116;-90
2024/03/11 17:20:50;;;;;;;56.50;35.10;;;;;;;9.43;100.00;98154.55;271819;1276;23011;-88
2024/03/11 17:27:17;;;;;;;57.30;36.20;;;;;;;9.27;100.00;98145.06;272198;1280;22979;-90
2024/03/11 17:33:47;;;;;;;64.20;40.50;;;;;;;9.10;100.00;98151.17;272135;1284;22202;-90
2024/03/11 17:40:21;;;;;;;62.90;39.40;;;;;;;8.97;100.00;98156.04;271932;1283;22313;-90
2024/03/11 17:46:35;;;;;;;67.90;42.50;;;;;;;8.85;100.00;98161.67;272300;1276;22310;-90
2024/03/11 17:53:03;;;;;;;72.40;42.40;;;;;;;8.73;100.00;98163.73;271969;1278;22459;-90
2024/03/11 17:59:26;;;;;;;68.40;42.10;;;;;;;8.62;100.00;98173.88;271011;1283;22209;-90
2024/03/11 18:05:48;;;;;;;68.30;42.80;;;;;;;8.52;100.00;98176.86;270131;1283;22251;-90
2024/03/11 18:12:49;;;;;;;;;;;;;;;;;;;;;
2024/03/11 18:19:48;;;;;;;70.10;42.80;;;;;;;8.33;100.00;98174.33;270519;1290;22363;-89
2024/03/11 18:26:02;;;;;;;70.40;44.60;;;;;;;8.23;100.00;98183.90;270401;1276;22853;-89
2024/03/11 18:32:14;;;;;;;83.40;48.60;;;;;;;8.14;100.00;98186.84;271315;1275;24900;-90
2024/03/11 18:38:30;;;;;;;81.30;47.90;;;;;;;8.05;100.00;98196.50;271365;1276;22350;-89
2024/03/11 18:44:32;;;;;;;91.80;49.10;;;;;;;7.98;100.00;98190.46;271516;1276;22443;-89
2024/03/11 18:50:34;;;;;;;78.70;46.70;;;;;;;7.92;100.00;98187.60;271225;1276;22253;-90
2024/03/11 18:56:37;;;;;;;85.20;49.90;;;;;;;7.85;100.00;98183.41;271456;1275;22411;-89
2024/03/11 19:02:47;;;;;;;90.60;51.70;;;;;;;7.81;100.00;98170.92;271427;1276;22981;-90
2024/03/11 19:09:00;;;;;;;88.80;51.50;;;;;;;7.74;100.00;98175.52;271395;1276;22660;-89
2024/03/11 19:15:27;;;;;;;83.50;48.70;;;;;;;7.69;100.00;98174.15;271545;1275;22597;-87
2024/03/11 19:21:31;;;;;;;83.10;47.70;;;;;;;7.63;100.00;98175.27;271575;1275;22367;-90
2024/03/11 19:27:39;;;;;;;87.10;48.30;;;;;;;7.60;100.00;98177.03;271338;1276;22508;-89
2024/03/11 19:33:41;;;;;;;66.40;37.40;;;;;;;7.56;100.00;98176.91;271578;1275;22267;-90
2024/03/11 19:40:11;;;;;;;89.90;50.70;;;;;;;7.54;100.00;98177.90;271439;1276;22294;-90
2024/03/11 19:46:31;;;;;;;90.90;48.60;;;;;;;7.52;100.00;98178.27;271680;1267;22669;-89
2024/03/11 19:52:59;;;;;;;92.10;49.00;;;;;;;7.48;100.00;98171.16;271096;1271;22349;-89
2024/03/11 19:59:55;;;;;;;86.50;50.50;;;;;;;7.45;100.00;98179.61;271405;1271;23632;-90
2024/03/11 20:06:17;;;;;;;91.60;48.60;;;;;;;7.45;100.00;98192.21;271210;1276;22218;-90
2024/03/11 20:12:40;;;;;;;84.60;48.70;;;;;;;7.42;100.00;98195.67;271472;1276;22220;-88
2024/03/11 20:19:21;;;;;;;75.50;43.20;;;;;;;7.39;100.00;98192.07;271473;1276;23295;-88
2024/03/11 20:25:49;;;;;;;80.50;46.60;;;;;;;7.34;100.00;98187.04;271448;1275;22995;-89
2024/03/11 20:32:01;;;;;;;83.20;47.80;;;;;;;7.30;100.00;98191.66;271278;1275;22348;-89
2024/03/11 20:38:04;;;;;;;83.70;46.70;;;;;;;7.26;100.00;98199.46;271406;1276;22277;-89
2024/03/11 20:44:07;;;;;;;84.20;47.30;;;;;;;7.24;100.00;98200.60;271343;1271;24315;-90
2024/03/11 20:50:43;;;;;;;89.30;49.20;;;;;;;7.21;100.00;98204.92;271403;1276;22403;-90
2024/03/11 20:57:08;;;;;;;77.10;47.00;;;;;;;7.16;100.00;98204.23;271311;1276;22230;-90
2024/03/11 21:03:44;;;;;;;76.90;46.00;;;;;;;7.14;100.00;98205.70;271937;1283;22184;-90
2024/03/11 21:09:51;;;;;;;86.20;48.10;;;;;;;7.11;100.00;98200.30;271301;1276;22207;-90
2024/03/11 21:16:19;;;;;;;84.00;47.40;;;;;;;7.08;100.00;98199.41;271335;1276;22444;-89
2024/03/11 21:22:31;;;;;;;84.40;46.50;;;;;;;7.04;100.00;98203.88;271712;1276;22288;-89
2024/03/11 21:28:38;;;;;;;85.50;46.70;;;;;;;7.00;100.00;98206.61;271914;1284;22344;-90
2024/03/11 21:34:44;;;;;;;80.30;46.30;;;;;;;6.96;100.00;98206.18;271139;1276;22921;-90
2024/03/11 21:40:57;;;;;;;80.70;47.70;;;;;;;6.92;100.00;98209.46;271304;1276;22236;-91
2024/03/11 21:47:19;;;;;;;87.20;48.50;;;;;;;6.88;100.00;98210.82;271324;1276;22517;-89
2024/03/11 21:53:36;;;;;;;78.20;47.20;;;;;;;6.86;100.00;98204.11;271512;1277;22399;-89
2024/03/11 22:00:36;;;;;;;;;;;;;;;;;;;;;
2024/03/11 22:06:51;;;;;;;80.50;45.00;;;;;;;6.78;100.00;98203.92;271209;1276;22446;-92
2024/03/11 22:12:56;;;;;;;84.50;45.50;;;;;;;6.77;100.00;98201.11;271368;1276;22461;-89
2024/03/11 22:19:01;;;;;;;90.50;48.10;;;;;;;6.73;100.00;98203.31;271716;1280;22232;-89
2024/03/11 22:25:04;;;;;;;71.50;43.00;;;;;;;6.71;100.00;98197.06;271407;1275;22220;-89
2024/03/11 22:31:09;;;;;;;74.60;43.90;;;;;;;6.69;100.00;98193.40;271660;1276;22335;-89
2024/03/11 22:37:15;;;;;;;71.70;42.80;;;;;;;6.69;100.00;98190.75;272343;1261;22181;-89
2024/03/11 22:43:36;;;;;;;69.60;41.00;;;;;;;6.68;100.00;98194.08;272246;1283;22287;-91
2024/03/11 22:49:50;;;;;;;70.30;42.10;;;;;;;6.67;100.00;98193.73;271318;1275;22634;-90
2024/03/11 22:56:08;;;;;;;75.70;43.90;;;;;;;6.65;100.00;98193.95;271437;1275;22480;-88
2024/03/11 23:02:16;;;;;;;79.00;43.70;;;;;;;6.63;100.00;98193.23;271403;1267;22276;-91
2024/03/11 23:08:30;;;;;;;77.10;43.90;;;;;;;6.61;100.00;98191.34;271379;1276;22316;-90
2024/03/11 23:14:42;;;;;;;70.70;43.10;;;;;;;6.60;100.00;98193.80;272298;1282;22909;-90
2024/03/11 23:21:37;;;;;;;;;;;;;;;;;;;;;
2024/03/11 23:28:21;;;;;;;80.40;44.30;;;;;;;6.59;100.00;98197.30;272592;1283;22646;-91
2024/03/11 23:34:44;;;;;;;;;;;;;;;;;;;;;
2024/03/11 23:42:04;;;;;;;;;;;;;;;;;;;;;
2024/03/11 23:49:08;;;;;;;73.50;41.40;;;;;;;6.56;100.00;98192.20;272345;1279;22268;-90
2024/03/11 23:56:24;;;;;;;;;;;;;;;;;;;;;
